createdAt,value
2023-01-09T00:00:03.860Z,7.20
2023-01-09T00:00:35.912Z,7.90
2023-01-09T00:01:12.862Z,9.30
2023-01-09T00:01:49.058Z,8.02
2023-01-09T00:02:21.052Z,6.90
2023-01-09T00:02:53.036Z,8.43
2023-01-09T00:03:25.958Z,7.57
2023-01-09T00:03:57.840Z,8.13
2023-01-09T00:04:29.681Z,8.00
2023-01-09T00:05:03.810Z,9.57
2023-01-09T00:05:35.618Z,8.25
2023-01-09T00:06:07.738Z,8.18
2023-01-09T00:06:43.223Z,7.68
2023-01-09T00:07:15.009Z,7.78
2023-01-09T00:07:46.895Z,8.60
2023-01-09T00:08:19.634Z,7.47
2023-01-09T00:08:51.501Z,8.65
2023-01-09T00:09:24.241Z,8.10
2023-01-09T00:09:57.040Z,8.88
2023-01-09T00:10:28.935Z,8.95
2023-01-09T00:11:00.988Z,8.70
2023-01-09T00:11:34.314Z,7.70
2023-01-09T00:12:06.417Z,8.27
2023-01-09T00:12:38.609Z,8.32
2023-01-09T00:13:12.866Z,6.75
2023-01-09T00:13:45.228Z,7.57
2023-01-09T00:14:17.640Z,7.85
2023-01-09T00:14:50.437Z,8.70
2023-01-09T00:15:22.335Z,7.30
2023-01-09T00:15:54.156Z,7.72
2023-01-09T00:16:27.000Z,7.47
2023-01-09T00:16:58.949Z,6.65
2023-01-09T00:17:30.781Z,5.90
2023-01-09T00:18:03.550Z,6.40
2023-01-09T00:18:35.521Z,6.40
2023-01-09T00:19:07.342Z,7.13
2023-01-09T00:19:40.217Z,6.72
2023-01-09T00:20:13.595Z,7.45
2023-01-09T00:20:45.462Z,7.28
2023-01-09T00:21:18.270Z,5.75
2023-01-09T00:21:50.089Z,5.95
2023-01-09T00:22:21.875Z,5.72
2023-01-09T00:22:54.681Z,5.30
2023-01-09T00:23:26.576Z,6.10
2023-01-09T00:23:58.438Z,5.55
2023-01-09T00:24:31.180Z,5.47
2023-01-09T00:25:03.304Z,6.30
2023-01-09T00:25:35.779Z,6.13
2023-01-09T00:26:11.222Z,6.00
2023-01-09T00:26:43.030Z,5.38
2023-01-09T00:27:14.824Z,6.22
2023-01-09T00:27:47.570Z,6.95
2023-01-09T00:28:19.400Z,5.53
2023-01-09T00:28:54.074Z,5.70
2023-01-09T00:29:25.962Z,6.22
2023-01-09T00:29:57.799Z,5.95
2023-01-09T00:30:31.599Z,5.72
2023-01-09T00:31:05.524Z,5.95
2023-01-09T00:31:38.384Z,5.13
2023-01-09T00:32:12.048Z,6.25
2023-01-09T00:32:43.964Z,6.53
2023-01-09T00:33:16.778Z,6.50
2023-01-09T00:33:54.005Z,5.85
2023-01-09T00:34:26.932Z,5.82
2023-01-09T00:34:59.744Z,6.10
2023-01-09T00:35:33.557Z,5.75
2023-01-09T00:36:06.293Z,5.70
2023-01-09T00:36:39.092Z,5.65
2023-01-09T00:37:11.901Z,6.07
2023-01-09T00:37:44.197Z,5.93
2023-01-09T00:38:17.010Z,5.65
2023-01-09T00:38:48.805Z,6.50
2023-01-09T00:39:20.827Z,6.20
2023-01-09T00:39:53.633Z,5.65
2023-01-09T00:40:25.521Z,5.80
2023-01-09T00:40:58.266Z,5.53
2023-01-09T00:41:35.672Z,6.05
2023-01-09T00:42:11.157Z,5.85
2023-01-09T00:42:46.177Z,6.32
2023-01-09T00:43:20.079Z,5.95
2023-01-09T00:43:56.304Z,5.55
2023-01-09T00:44:32.895Z,5.88
2023-01-09T00:45:11.246Z,5.93
2023-01-09T00:45:43.296Z,5.88
2023-01-09T00:46:17.256Z,6.47
2023-01-09T00:46:51.553Z,6.22
2023-01-09T00:47:26.512Z,7.25
2023-01-09T00:48:03.515Z,6.82
2023-01-09T00:48:38.363Z,5.20
2023-01-09T00:49:11.742Z,5.57
2023-01-09T00:49:46.117Z,4.93
2023-01-09T00:50:23.158Z,5.25
2023-01-09T00:50:59.372Z,6.30
2023-01-09T00:51:32.528Z,5.68
2023-01-09T00:52:06.741Z,6.10
2023-01-09T00:52:40.371Z,5.40
2023-01-09T00:53:16.545Z,5.70
2023-01-09T00:53:50.406Z,5.82
2023-01-09T00:54:23.587Z,4.90
2023-01-09T00:54:55.448Z,5.72
2023-01-09T00:55:27.575Z,5.30
2023-01-09T00:56:02.986Z,5.65
2023-01-09T00:56:36.089Z,5.30
2023-01-09T00:57:08.788Z,5.68
2023-01-09T00:57:41.729Z,4.90
2023-01-09T00:58:13.628Z,6.10
2023-01-09T00:58:45.900Z,4.80
2023-01-09T00:59:18.779Z,5.32
2023-01-09T00:59:51.843Z,4.45
2023-01-09T01:00:23.832Z,5.03
2023-01-09T01:00:56.668Z,5.65
2023-01-09T01:01:28.602Z,5.50
2023-01-09T01:02:00.817Z,5.32
2023-01-09T01:02:34.095Z,5.57
2023-01-09T01:03:06.023Z,5.63
2023-01-09T01:03:38.932Z,5.00
2023-01-09T01:04:29.331Z,6.40
2023-01-09T01:05:19.881Z,6.43
2023-01-09T01:06:10.454Z,5.82
2023-01-09T01:07:02.233Z,4.78
2023-01-09T01:07:40.135Z,5.03
2023-01-09T01:08:12.540Z,5.35
2023-01-09T01:08:46.310Z,5.40
2023-01-09T01:09:18.154Z,5.13
2023-01-09T01:09:50.036Z,5.57
2023-01-09T01:10:25.429Z,5.97
2023-01-09T01:10:57.358Z,5.50
2023-01-09T01:11:29.215Z,5.50
2023-01-09T01:12:06.861Z,5.85
2023-01-09T01:12:39.609Z,5.85
2023-01-09T01:13:12.814Z,6.13
2023-01-09T01:13:44.609Z,5.03
2023-01-09T01:14:16.458Z,6.05
2023-01-09T01:14:49.304Z,5.60
2023-01-09T01:15:21.494Z,6.25
2023-01-09T01:15:53.354Z,6.07
2023-01-09T01:16:26.624Z,5.00
2023-01-09T01:16:58.605Z,6.55
2023-01-09T01:17:30.530Z,5.50
2023-01-09T01:18:03.374Z,6.30
2023-01-09T01:18:35.374Z,6.00
2023-01-09T01:19:07.309Z,5.80
2023-01-09T01:19:40.058Z,6.55
2023-01-09T01:20:15.015Z,5.78
2023-01-09T01:20:47.818Z,6.18
2023-01-09T01:21:19.680Z,6.00
2023-01-09T01:21:53.090Z,6.65
2023-01-09T01:22:25.873Z,5.45
2023-01-09T01:22:57.735Z,5.30
2023-01-09T01:23:29.598Z,5.45
2023-01-09T01:24:02.356Z,5.28
2023-01-09T01:24:34.230Z,5.53
2023-01-09T01:25:06.382Z,5.95
2023-01-09T01:25:38.523Z,5.50
2023-01-09T01:26:13.778Z,5.00
2023-01-09T01:26:45.913Z,5.88
2023-01-09T01:27:17.832Z,4.78
2023-01-09T01:27:50.685Z,5.35
2023-01-09T01:28:22.513Z,5.65
2023-01-09T01:28:54.353Z,5.78
2023-01-09T01:29:27.764Z,5.95
2023-01-09T01:29:59.594Z,5.03
2023-01-09T01:30:31.534Z,4.80
2023-01-09T01:31:05.118Z,5.15
2023-01-09T01:31:37.045Z,5.18
2023-01-09T01:32:08.893Z,6.00
2023-01-09T01:32:41.809Z,4.75
2023-01-09T01:33:13.631Z,6.18
2023-01-09T01:33:45.515Z,5.63
2023-01-09T01:34:18.315Z,5.70
2023-01-09T01:34:50.189Z,5.25
2023-01-09T01:35:23.001Z,4.78
2023-01-09T01:36:01.001Z,5.40
2023-01-09T01:36:34.018Z,5.30
2023-01-09T01:37:08.200Z,5.13
2023-01-09T01:37:40.516Z,5.50
2023-01-09T01:38:12.331Z,5.70
2023-01-09T01:38:46.748Z,5.88
2023-01-09T01:39:18.606Z,6.30
2023-01-09T01:39:51.771Z,5.90
2023-01-09T01:40:24.680Z,5.43
2023-01-09T01:40:56.715Z,5.90
2023-01-09T01:41:29.615Z,4.93
2023-01-09T01:42:04.534Z,6.55
2023-01-09T01:42:36.398Z,5.70
2023-01-09T01:43:12.022Z,5.28
2023-01-09T01:43:51.367Z,4.80
2023-01-09T01:45:06.880Z,5.13
2023-01-09T01:45:40.384Z,4.65
2023-01-09T01:46:12.345Z,5.90
2023-01-09T01:46:45.090Z,5.65
2023-01-09T01:47:18.641Z,5.25
2023-01-09T01:47:57.275Z,5.57
2023-01-09T01:48:30.615Z,5.57
2023-01-09T01:49:20.289Z,5.70
2023-01-09T01:49:52.708Z,5.50
2023-01-09T01:50:29.964Z,5.68
2023-01-09T01:51:06.499Z,6.15
2023-01-09T01:51:41.548Z,5.57
2023-01-09T01:52:15.454Z,5.38
2023-01-09T01:52:53.622Z,5.00
2023-01-09T01:53:29.027Z,5.40
2023-01-09T01:54:05.820Z,5.72
2023-01-09T01:54:38.735Z,6.35
2023-01-09T01:55:12.317Z,5.82
2023-01-09T01:55:52.042Z,6.00
2023-01-09T01:56:27.873Z,5.40
2023-01-09T01:57:03.783Z,5.63
2023-01-09T01:57:38.455Z,5.75
2023-01-09T01:58:13.461Z,6.25
2023-01-09T01:58:48.742Z,5.30
2023-01-09T01:59:26.732Z,6.53
2023-01-09T01:59:59.981Z,6.35
2023-01-09T02:00:35.118Z,5.18
2023-01-09T02:01:07.969Z,5.38
2023-01-09T02:01:42.715Z,6.10
2023-01-09T02:02:14.799Z,5.93
2023-01-09T02:02:47.699Z,6.30
2023-01-09T02:03:23.622Z,6.35
2023-01-09T02:03:58.670Z,6.00
2023-01-09T02:04:33.158Z,5.25
2023-01-09T02:05:05.840Z,5.47
2023-01-09T02:05:39.901Z,6.00
2023-01-09T02:06:12.977Z,6.50
2023-01-09T02:06:46.917Z,5.78
2023-01-09T02:07:21.249Z,4.95
2023-01-09T02:07:53.134Z,5.10
2023-01-09T02:08:25.273Z,4.80
2023-01-09T02:08:58.538Z,5.80
2023-01-09T02:09:30.930Z,5.45
2023-01-09T02:10:03.219Z,5.53
2023-01-09T02:10:36.525Z,5.18
2023-01-09T02:11:08.881Z,5.07
2023-01-09T02:11:44.815Z,5.53
2023-01-09T02:12:20.378Z,5.15
2023-01-09T02:12:52.192Z,5.45
2023-01-09T02:13:26.509Z,5.18
2023-01-09T02:13:58.981Z,5.97
2023-01-09T02:14:32.174Z,5.07
2023-01-09T02:15:09.414Z,4.90
2023-01-09T02:15:51.572Z,4.85
2023-01-09T02:16:38.512Z,4.82
2023-01-09T02:17:17.247Z,4.95
2023-01-09T02:18:15.032Z,4.97
2023-01-09T02:18:51.910Z,5.65
2023-01-09T02:19:48.741Z,5.70
2023-01-09T02:20:40.774Z,5.00
2023-01-09T02:21:20.829Z,4.65
2023-01-09T02:22:08.453Z,4.88
2023-01-09T02:22:59.259Z,4.85
2023-01-09T02:24:00.757Z,5.35
2023-01-09T02:25:02.559Z,6.95
2023-01-09T02:25:57.182Z,5.15
2023-01-09T02:27:01.812Z,4.35
2023-01-09T02:28:04.371Z,4.80
2023-01-09T02:29:04.841Z,4.80
2023-01-09T02:30:10.852Z,4.85
2023-01-09T02:30:47.388Z,5.13
2023-01-09T02:31:26.263Z,4.95
2023-01-09T02:32:04.021Z,4.68
2023-01-09T02:32:48.902Z,6.10
2023-01-09T02:33:32.063Z,4.88
2023-01-09T02:34:12.183Z,5.15
2023-01-09T02:34:51.788Z,4.68
2023-01-09T02:35:41.396Z,4.85
2023-01-09T02:36:22.029Z,4.82
2023-01-09T02:37:04.328Z,4.90
2023-01-09T02:37:45.049Z,5.13
2023-01-09T02:38:24.080Z,3.70
2023-01-09T02:39:12.711Z,5.32
2023-01-09T02:39:52.316Z,4.65
2023-01-09T02:40:30.199Z,5.45
2023-01-09T02:41:06.911Z,5.20
2023-01-09T02:41:46.811Z,4.80
2023-01-09T02:42:21.771Z,4.47
2023-01-09T02:42:55.466Z,4.90
2023-01-09T02:43:28.681Z,5.22
2023-01-09T02:44:17.575Z,4.60
2023-01-09T02:44:51.225Z,4.00
2023-01-09T02:45:23.085Z,5.30
2023-01-09T02:45:56.276Z,4.10
2023-01-09T02:46:29.180Z,4.43
2023-01-09T02:47:03.442Z,5.50
2023-01-09T02:47:41.206Z,4.72
2023-01-09T02:48:14.236Z,4.40
2023-01-09T02:48:47.502Z,4.82
2023-01-09T02:49:19.323Z,4.40
2023-01-09T02:49:55.775Z,4.53
2023-01-09T02:50:32.191Z,4.93
2023-01-09T02:51:15.412Z,4.50
2023-01-09T02:51:53.069Z,4.15
2023-01-09T02:52:36.209Z,12.38
2023-01-09T02:53:27.938Z,10.15
2023-01-09T02:54:15.810Z,13.95
2023-01-09T02:54:55.676Z,6.30
2023-01-09T02:55:40.707Z,4.97
2023-01-09T02:56:28.545Z,4.78
2023-01-09T02:57:27.714Z,4.45
2023-01-09T02:58:06.893Z,7.07
2023-01-09T02:59:08.774Z,5.50
2023-01-09T02:59:56.510Z,6.32
2023-01-09T03:00:36.662Z,5.57
2023-01-09T03:01:22.388Z,4.72
2023-01-09T03:02:11.316Z,4.80
2023-01-09T03:02:50.624Z,4.90
2023-01-09T03:03:27.449Z,5.55
2023-01-09T03:04:09.932Z,5.32
2023-01-09T03:04:48.891Z,4.80
2023-01-09T03:05:26.906Z,5.35
2023-01-09T03:06:06.826Z,4.93
2023-01-09T03:06:45.852Z,4.38
2023-01-09T03:07:24.290Z,4.10
2023-01-09T03:08:00.783Z,5.38
2023-01-09T03:08:38.187Z,4.50
2023-01-09T03:09:16.728Z,4.05
2023-01-09T03:09:50.424Z,4.40
2023-01-09T03:10:26.708Z,4.25
2023-01-09T03:11:02.803Z,3.30
2023-01-09T03:11:40.352Z,4.18
2023-01-09T03:12:17.487Z,4.25
2023-01-09T03:12:54.160Z,4.45
2023-01-09T03:13:30.423Z,4.00
2023-01-09T03:14:08.053Z,3.40
2023-01-09T03:14:44.311Z,4.15
2023-01-09T03:15:17.997Z,4.40
2023-01-09T03:15:54.165Z,4.03
2023-01-09T03:16:31.566Z,4.22
2023-01-09T03:17:08.725Z,4.28
2023-01-09T03:17:46.671Z,3.97
2023-01-09T03:18:22.050Z,4.22
2023-01-09T03:18:55.958Z,4.35
2023-01-09T03:19:33.009Z,4.28
2023-01-09T03:20:07.793Z,4.65
2023-01-09T03:20:41.040Z,3.95
2023-01-09T03:21:14.576Z,4.30
2023-01-09T03:21:47.773Z,4.22
2023-01-09T03:22:19.681Z,4.20
2023-01-09T03:22:57.308Z,4.25
2023-01-09T03:23:45.679Z,4.72
2023-01-09T03:24:18.502Z,4.07
2023-01-09T03:24:50.327Z,3.88
2023-01-09T03:25:22.558Z,3.90
2023-01-09T03:25:55.324Z,4.05
2023-01-09T03:26:29.122Z,4.30
2023-01-09T03:27:01.477Z,4.15
2023-01-09T03:27:34.469Z,3.90
2023-01-09T03:28:08.780Z,4.03
2023-01-09T03:28:40.845Z,4.15
2023-01-09T03:29:13.706Z,3.70
2023-01-09T03:29:45.571Z,3.63
2023-01-09T03:30:18.093Z,4.05
2023-01-09T03:30:50.853Z,4.00
2023-01-09T03:31:22.866Z,4.03
2023-01-09T03:31:56.143Z,3.90
2023-01-09T03:32:29.021Z,4.90
2023-01-09T03:33:01.198Z,3.40
2023-01-09T03:33:32.979Z,3.85
2023-01-09T03:34:05.909Z,3.70
2023-01-09T03:34:37.870Z,3.33
2023-01-09T03:35:09.831Z,3.97
2023-01-09T03:35:41.864Z,4.10
2023-01-09T03:36:15.643Z,4.00
2023-01-09T03:36:47.512Z,4.70
2023-01-09T03:37:19.390Z,4.07
2023-01-09T03:37:52.301Z,3.38
2023-01-09T03:38:24.228Z,4.00
2023-01-09T03:38:56.045Z,3.83
2023-01-09T03:39:28.811Z,3.40
2023-01-09T03:40:00.640Z,4.70
2023-01-09T03:40:32.493Z,3.38
2023-01-09T03:41:05.614Z,4.13
2023-01-09T03:41:37.406Z,4.55
2023-01-09T03:42:09.197Z,4.35
2023-01-09T03:42:42.096Z,4.00
2023-01-09T03:43:13.897Z,4.18
2023-01-09T03:43:45.752Z,4.20
2023-01-09T03:44:18.594Z,4.10
2023-01-09T03:44:51.924Z,3.92
2023-01-09T03:45:23.753Z,3.65
2023-01-09T03:45:56.655Z,3.95
2023-01-09T03:46:28.607Z,3.88
2023-01-09T03:47:01.767Z,5.00
2023-01-09T03:47:34.531Z,4.07
2023-01-09T03:48:06.855Z,3.80
2023-01-09T03:48:38.707Z,3.35
2023-01-09T03:49:11.776Z,4.10
2023-01-09T03:49:43.609Z,4.05
2023-01-09T03:50:15.885Z,3.75
2023-01-09T03:50:49.694Z,3.90
2023-01-09T03:51:21.541Z,3.47
2023-01-09T03:51:53.367Z,3.97
2023-01-09T03:52:26.127Z,4.10
2023-01-09T03:52:57.969Z,4.55
2023-01-09T03:53:30.790Z,4.88
2023-01-09T03:54:02.658Z,3.85
2023-01-09T03:54:34.516Z,3.50
2023-01-09T03:55:08.039Z,3.88
2023-01-09T03:55:40.060Z,4.25
2023-01-09T03:56:11.890Z,4.10
2023-01-09T03:56:44.665Z,3.92
2023-01-09T03:57:16.494Z,4.05
2023-01-09T03:57:49.097Z,3.88
2023-01-09T03:58:23.003Z,4.30
2023-01-09T03:58:54.949Z,3.60
2023-01-09T03:59:26.920Z,3.70
2023-01-09T03:59:59.667Z,3.70
2023-01-09T04:00:31.756Z,4.03
2023-01-09T04:01:06.008Z,3.70
2023-01-09T04:01:38.997Z,4.32
2023-01-09T04:02:12.374Z,4.00
2023-01-09T04:02:44.258Z,3.70
2023-01-09T04:03:18.683Z,3.47
2023-01-09T04:03:50.566Z,4.15
2023-01-09T04:04:23.463Z,3.88
2023-01-09T04:04:55.304Z,4.10
2023-01-09T04:05:27.166Z,3.95
2023-01-09T04:05:59.964Z,3.60
2023-01-09T04:06:31.792Z,4.07
2023-01-09T04:07:03.671Z,3.80
2023-01-09T04:07:36.492Z,3.22
2023-01-09T04:08:08.351Z,3.67
2023-01-09T04:08:40.170Z,3.63
2023-01-09T04:09:12.948Z,3.85
2023-01-09T04:09:44.808Z,4.43
2023-01-09T04:10:17.149Z,4.15
2023-01-09T04:10:51.280Z,3.00
2023-01-09T04:11:23.126Z,3.63
2023-01-09T04:11:55.003Z,3.70
2023-01-09T04:12:27.897Z,3.58
2023-01-09T04:12:59.762Z,4.05
2023-01-09T04:13:31.565Z,3.80
2023-01-09T04:14:04.450Z,3.80
2023-01-09T04:14:36.280Z,3.47
2023-01-09T04:15:08.812Z,4.10
2023-01-09T04:15:41.705Z,3.40
2023-01-09T04:16:13.617Z,3.65
2023-01-09T04:16:45.496Z,3.95
2023-01-09T04:17:19.644Z,3.35
2023-01-09T04:17:51.486Z,3.33
2023-01-09T04:18:23.278Z,4.00
2023-01-09T04:18:56.235Z,3.67
2023-01-09T04:19:28.067Z,4.63
2023-01-09T04:19:59.994Z,3.03
2023-01-09T04:20:33.042Z,3.63
2023-01-09T04:21:05.141Z,3.42
2023-01-09T04:21:36.999Z,3.13
2023-01-09T04:22:09.814Z,3.50
2023-01-09T04:22:41.817Z,2.72
2023-01-09T04:23:13.704Z,2.85
2023-01-09T04:23:46.558Z,3.30
2023-01-09T04:24:18.555Z,3.08
2023-01-09T04:24:50.388Z,2.65
2023-01-09T04:25:23.553Z,3.13
2023-01-09T04:25:55.327Z,3.10
2023-01-09T04:26:27.136Z,3.65
2023-01-09T04:27:00.647Z,3.15
2023-01-09T04:27:32.450Z,2.53
2023-01-09T04:28:04.538Z,2.85
2023-01-09T04:28:37.419Z,2.40
2023-01-09T04:29:09.255Z,2.47
2023-01-09T04:29:41.053Z,2.60
2023-01-09T04:30:14.371Z,2.30
2023-01-09T04:30:46.286Z,2.40
2023-01-09T04:31:18.161Z,3.00
2023-01-09T04:31:51.111Z,3.08
2023-01-09T04:32:24.364Z,2.65
2023-01-09T04:32:56.310Z,2.33
2023-01-09T04:33:29.175Z,2.20
2023-01-09T04:34:01.139Z,2.53
2023-01-09T04:34:32.971Z,2.50
2023-01-09T04:35:06.839Z,1.88
2023-01-09T04:35:38.677Z,2.17
2023-01-09T04:36:11.964Z,2.40
2023-01-09T04:36:43.784Z,2.65
2023-01-09T04:37:15.638Z,1.88
2023-01-09T04:37:48.723Z,2.00
2023-01-09T04:38:20.583Z,2.40
2023-01-09T04:38:52.397Z,2.22
2023-01-09T04:39:25.318Z,1.98
2023-01-09T04:39:57.237Z,2.15
2023-01-09T04:40:29.033Z,2.03
2023-01-09T04:41:01.848Z,2.50
2023-01-09T04:41:48.811Z,2.10
2023-01-09T04:42:20.670Z,2.28
2023-01-09T04:42:53.430Z,2.35
2023-01-09T04:43:25.494Z,2.22
2023-01-09T04:43:57.300Z,2.17
2023-01-09T04:44:29.607Z,1.88
2023-01-09T04:45:02.429Z,2.15
2023-01-09T04:45:34.337Z,2.33
2023-01-09T04:46:07.322Z,2.15
2023-01-09T04:46:39.189Z,1.95
2023-01-09T04:47:13.471Z,2.20
2023-01-09T04:47:47.824Z,2.10
2023-01-09T04:48:19.788Z,2.00
2023-01-09T04:48:51.579Z,2.05
2023-01-09T04:49:24.541Z,2.15
2023-01-09T04:49:56.361Z,2.13
2023-01-09T04:50:28.156Z,1.90
2023-01-09T04:51:00.923Z,1.98
2023-01-09T04:51:32.778Z,2.03
2023-01-09T04:52:06.284Z,2.50
2023-01-09T04:52:39.064Z,1.98
2023-01-09T04:53:11.084Z,1.98
2023-01-09T04:53:43.837Z,2.20
2023-01-09T04:54:16.049Z,1.80
2023-01-09T04:54:47.903Z,1.50
2023-01-09T04:55:20.663Z,1.83
2023-01-09T04:55:52.462Z,1.92
2023-01-09T04:56:24.401Z,1.40
2023-01-09T04:56:57.280Z,1.63
2023-01-09T04:57:29.170Z,1.90
2023-01-09T04:58:01.980Z,1.48
2023-01-09T04:58:33.781Z,1.70
2023-01-09T04:59:06.529Z,1.45
2023-01-09T04:59:39.319Z,1.40
2023-01-09T05:00:12.323Z,1.20
2023-01-09T05:00:45.243Z,1.10
2023-01-09T05:01:17.256Z,1.45
2023-01-09T05:01:49.473Z,1.17
2023-01-09T05:02:22.550Z,1.40
2023-01-09T05:02:56.914Z,1.20
2023-01-09T05:03:28.787Z,1.33
2023-01-09T05:04:01.858Z,1.20
2023-01-09T05:04:34.128Z,1.10
2023-01-09T05:05:10.401Z,0.90
2023-01-09T05:05:44.156Z,0.88
2023-01-09T05:06:16.063Z,0.80
2023-01-09T05:06:47.916Z,1.20
2023-01-09T05:07:20.682Z,0.85
2023-01-09T05:07:52.531Z,0.82
2023-01-09T05:08:24.353Z,0.70
2023-01-09T05:08:57.472Z,0.60
2023-01-09T05:09:30.708Z,0.88
2023-01-09T05:10:04.598Z,0.90
2023-01-09T05:10:36.482Z,0.90
2023-01-09T05:11:08.288Z,0.88
2023-01-09T05:11:41.078Z,1.60
2023-01-09T05:12:12.924Z,0.90
2023-01-09T05:12:45.643Z,0.95
2023-01-09T05:13:17.429Z,0.68
2023-01-09T05:13:49.263Z,0.70
2023-01-09T05:14:22.196Z,0.70
2023-01-09T05:14:54.124Z,0.80
2023-01-09T05:15:28.137Z,0.88
2023-01-09T05:16:00.990Z,1.15
2023-01-09T05:16:32.973Z,1.77
2023-01-09T05:17:04.798Z,1.10
2023-01-09T05:17:37.634Z,1.40
2023-01-09T05:18:10.800Z,1.45
2023-01-09T05:18:42.610Z,0.40
2023-01-09T05:19:15.377Z,0.60
2023-01-09T05:19:47.208Z,0.75
2023-01-09T05:20:19.155Z,0.70
2023-01-09T05:20:51.925Z,0.40
2023-01-09T05:21:24.144Z,0.73
2023-01-09T05:21:56.034Z,0.65
2023-01-09T05:22:28.870Z,0.80
2023-01-09T05:23:00.690Z,0.75
2023-01-09T05:23:32.561Z,0.50
2023-01-09T05:24:05.807Z,0.55
2023-01-09T05:24:37.759Z,0.45
2023-01-09T05:25:10.821Z,0.50
2023-01-09T05:25:42.678Z,0.50
2023-01-09T05:26:14.524Z,0.57
2023-01-09T05:26:47.325Z,0.80
2023-01-09T05:27:19.190Z,0.40
2023-01-09T05:27:51.023Z,0.50
2023-01-09T05:28:23.804Z,0.40
2023-01-09T05:28:56.343Z,0.40
2023-01-09T05:29:28.179Z,0.60
2023-01-09T05:30:01.019Z,0.40
2023-01-09T05:30:32.866Z,0.57
2023-01-09T05:31:04.852Z,0.50
2023-01-09T05:31:37.901Z,0.40
2023-01-09T05:32:09.893Z,0.30
2023-01-09T05:32:41.674Z,0.40
2023-01-09T05:33:15.801Z,0.32
2023-01-09T05:33:47.616Z,0.50
2023-01-09T05:34:19.630Z,0.40
2023-01-09T05:34:52.446Z,0.40
2023-01-09T05:35:24.653Z,0.52
2023-01-09T05:35:56.515Z,0.60
2023-01-09T05:36:29.656Z,0.40
2023-01-09T05:37:01.667Z,0.50
2023-01-09T05:37:34.469Z,0.50
2023-01-09T05:38:18.188Z,0.40
2023-01-09T05:38:50.033Z,0.32
2023-01-09T05:39:22.905Z,0.60
2023-01-09T05:39:54.736Z,0.50
2023-01-09T05:40:29.305Z,0.40
2023-01-09T05:41:05.142Z,0.30
2023-01-09T05:41:36.973Z,0.30
2023-01-09T05:42:08.790Z,0.30
2023-01-09T05:42:42.705Z,0.40
2023-01-09T05:43:14.552Z,0.40
2023-01-09T05:43:46.359Z,0.43
2023-01-09T05:44:19.298Z,0.38
2023-01-09T05:44:51.109Z,0.40
2023-01-09T05:45:23.117Z,0.50
2023-01-09T05:45:55.950Z,0.38
2023-01-09T05:46:27.785Z,0.50
2023-01-09T05:47:01.381Z,0.30
2023-01-09T05:47:35.523Z,0.40
2023-01-09T05:48:07.432Z,0.45
2023-01-09T05:48:40.579Z,0.50
2023-01-09T05:49:13.574Z,0.50
2023-01-09T05:49:45.461Z,0.40
2023-01-09T05:50:17.447Z,0.43
2023-01-09T05:50:50.256Z,0.43
2023-01-09T05:51:22.087Z,0.60
2023-01-09T05:51:53.918Z,0.40
2023-01-09T05:52:26.740Z,0.30
2023-01-09T05:52:58.588Z,0.50
2023-01-09T05:53:30.411Z,0.40
2023-01-09T05:54:04.699Z,0.30
2023-01-09T05:54:36.572Z,0.45
2023-01-09T05:55:08.934Z,0.57
2023-01-09T05:55:41.820Z,1.27
2023-01-09T05:56:13.611Z,0.40
2023-01-09T05:56:45.466Z,0.40
2023-01-09T05:57:17.565Z,0.30
2023-01-09T05:57:50.382Z,0.40
2023-01-09T05:58:22.218Z,0.40
2023-01-09T05:58:54.012Z,0.32
2023-01-09T05:59:27.482Z,0.50
2023-01-09T05:59:59.363Z,0.40
2023-01-09T06:00:31.492Z,0.30
2023-01-09T06:01:04.409Z,0.30
2023-01-09T06:01:36.320Z,0.50
2023-01-09T06:02:08.440Z,0.40
2023-01-09T06:02:41.369Z,0.50
2023-01-09T06:03:13.347Z,0.35
2023-01-09T06:03:46.487Z,0.30
2023-01-09T06:04:19.295Z,0.30
2023-01-09T06:04:51.121Z,0.43
2023-01-09T06:05:22.993Z,1.52
2023-01-09T06:05:54.850Z,0.40
2023-01-09T06:06:27.639Z,0.40
2023-01-09T06:06:59.450Z,0.40
2023-01-09T06:07:31.295Z,0.30
2023-01-09T06:08:04.073Z,0.40
2023-01-09T06:08:35.906Z,0.38
2023-01-09T06:09:08.033Z,0.40
2023-01-09T06:09:40.758Z,0.40
2023-01-09T06:10:14.651Z,0.38
2023-01-09T06:10:46.716Z,0.30
2023-01-09T06:11:18.546Z,0.50
2023-01-09T06:11:51.466Z,1.00
2023-01-09T06:12:23.309Z,0.77
2023-01-09T06:12:55.147Z,0.50
2023-01-09T06:13:27.977Z,0.50
2023-01-09T06:13:59.842Z,0.43
2023-01-09T06:14:31.711Z,0.32
2023-01-09T06:15:05.963Z,0.30
2023-01-09T06:15:39.396Z,0.30
2023-01-09T06:16:11.403Z,0.50
2023-01-09T06:16:44.169Z,0.30
2023-01-09T06:17:16.076Z,0.38
2023-01-09T06:17:47.995Z,0.30
2023-01-09T06:18:20.838Z,0.40
2023-01-09T06:18:54.247Z,0.30
2023-01-09T06:19:26.104Z,0.30
2023-01-09T06:19:58.845Z,0.30
2023-01-09T06:20:30.852Z,0.60
2023-01-09T06:21:03.683Z,0.40
2023-01-09T06:21:36.563Z,0.30
2023-01-09T06:22:08.417Z,0.30
2023-01-09T06:22:41.255Z,0.40
2023-01-09T06:23:13.743Z,0.35
2023-01-09T06:23:46.809Z,0.40
2023-01-09T06:24:18.788Z,0.30
2023-01-09T06:24:50.640Z,0.40
2023-01-09T06:25:23.550Z,0.30
2023-01-09T06:25:55.371Z,0.32
2023-01-09T06:26:27.270Z,0.45
2023-01-09T06:26:59.996Z,0.40
2023-01-09T06:27:31.801Z,0.38
2023-01-09T06:28:03.830Z,0.40
2023-01-09T06:28:36.611Z,0.30
2023-01-09T06:29:08.694Z,0.40
2023-01-09T06:29:40.840Z,0.30
2023-01-09T06:30:14.009Z,0.30
2023-01-09T06:30:49.778Z,0.38
2023-01-09T06:31:21.939Z,0.40
2023-01-09T06:31:54.777Z,0.30
2023-01-09T06:32:26.612Z,0.40
2023-01-09T06:32:58.497Z,0.50
2023-01-09T06:33:32.003Z,0.40
2023-01-09T06:34:05.216Z,0.45
2023-01-09T06:34:37.032Z,0.30
2023-01-09T06:35:10.519Z,0.30
2023-01-09T06:35:42.338Z,0.47
2023-01-09T06:36:14.539Z,0.63
2023-01-09T06:36:47.310Z,0.30
2023-01-09T06:37:19.197Z,0.50
2023-01-09T06:37:51.243Z,0.40
2023-01-09T06:38:24.137Z,0.38
2023-01-09T06:38:55.922Z,0.30
2023-01-09T06:39:27.931Z,0.30
2023-01-09T06:40:00.743Z,0.30
2023-01-09T06:40:32.675Z,0.47
2023-01-09T06:41:05.915Z,0.35
2023-01-09T06:41:37.923Z,0.32
2023-01-09T06:42:09.772Z,0.30
2023-01-09T06:42:45.190Z,0.30
2023-01-09T06:43:17.167Z,0.40
2023-01-09T06:43:49.950Z,0.45
2023-01-09T06:44:21.964Z,0.85
2023-01-09T06:44:53.789Z,0.30
2023-01-09T06:45:26.566Z,0.50
2023-01-09T06:45:58.606Z,0.45
2023-01-09T06:46:30.502Z,0.40
2023-01-09T06:47:03.583Z,0.43
2023-01-09T06:47:35.438Z,0.60
2023-01-09T06:48:08.421Z,0.30
2023-01-09T06:48:40.295Z,0.50
2023-01-09T06:49:14.444Z,0.40
2023-01-09T06:49:46.346Z,0.30
2023-01-09T06:50:18.546Z,0.60
2023-01-09T06:50:51.499Z,0.45
2023-01-09T06:51:23.402Z,0.43
2023-01-09T06:51:55.222Z,0.40
2023-01-09T06:52:27.989Z,0.40
2023-01-09T06:52:59.800Z,0.45
2023-01-09T06:53:32.696Z,0.40
2023-01-09T06:54:04.750Z,0.30
2023-01-09T06:54:36.572Z,0.47
2023-01-09T06:55:10.200Z,0.40
2023-01-09T06:55:42.013Z,0.40
2023-01-09T06:56:13.991Z,0.30
2023-01-09T06:56:47.165Z,0.60
2023-01-09T06:57:19.017Z,0.77
2023-01-09T06:57:50.962Z,0.68
2023-01-09T06:58:23.697Z,0.40
2023-01-09T06:58:55.802Z,0.40
2023-01-09T06:59:27.665Z,0.40
2023-01-09T07:00:00.509Z,0.40
2023-01-09T07:00:32.524Z,0.30
2023-01-09T07:01:05.711Z,0.30
2023-01-09T07:01:39.581Z,0.40
2023-01-09T07:02:17.823Z,0.47
2023-01-09T07:02:50.659Z,0.30
2023-01-09T07:03:22.629Z,0.40
2023-01-09T07:03:54.495Z,0.40
2023-01-09T07:04:28.825Z,0.40
2023-01-09T07:05:00.768Z,0.43
2023-01-09T07:05:39.759Z,0.32
2023-01-09T07:06:12.611Z,0.30
2023-01-09T07:06:47.517Z,0.50
2023-01-09T07:07:20.289Z,0.50
2023-01-09T07:07:53.069Z,0.35
2023-01-09T07:08:24.941Z,0.50
2023-01-09T07:08:56.731Z,0.40
2023-01-09T07:09:29.481Z,0.30
2023-01-09T07:10:01.346Z,0.40
2023-01-09T07:10:34.188Z,0.40
2023-01-09T07:11:06.595Z,0.40
2023-01-09T07:11:39.515Z,0.40
2023-01-09T07:12:11.545Z,0.40
2023-01-09T07:12:44.301Z,0.35
2023-01-09T07:13:16.193Z,0.38
2023-01-09T07:13:47.989Z,0.57
2023-01-09T07:14:20.713Z,0.52
2023-01-09T07:14:52.511Z,0.55
2023-01-09T07:15:24.380Z,0.40
2023-01-09T07:15:57.279Z,0.38
2023-01-09T07:16:29.088Z,0.30
2023-01-09T07:17:00.926Z,0.30
2023-01-09T07:17:33.836Z,0.40
2023-01-09T07:18:05.750Z,0.70
2023-01-09T07:18:37.561Z,0.38
2023-01-09T07:19:10.333Z,0.40
2023-01-09T07:19:43.488Z,0.35
2023-01-09T07:20:15.669Z,0.40
2023-01-09T07:20:49.141Z,0.38
2023-01-09T07:21:20.997Z,0.30
2023-01-09T07:21:52.860Z,0.40
2023-01-09T07:22:25.681Z,0.38
2023-01-09T07:22:57.565Z,0.98
2023-01-09T07:23:29.418Z,0.60
2023-01-09T07:24:02.206Z,0.52
2023-01-09T07:24:34.192Z,0.85
2023-01-09T07:25:06.452Z,0.28
2023-01-09T07:25:39.428Z,0.60
2023-01-09T07:26:11.225Z,0.38
2023-01-09T07:26:44.118Z,0.35
2023-01-09T07:27:16.262Z,0.30
2023-01-09T07:27:48.213Z,0.30
2023-01-09T07:28:20.971Z,0.35
2023-01-09T07:28:52.831Z,0.50
2023-01-09T07:29:25.661Z,0.32
2023-01-09T07:29:57.464Z,0.77
2023-01-09T07:30:30.359Z,0.30
2023-01-09T07:31:02.551Z,0.40
2023-01-09T07:31:35.067Z,0.30
2023-01-09T07:32:07.962Z,0.30
2023-01-09T07:32:40.990Z,0.30
2023-01-09T07:33:13.804Z,0.40